Time;durP1;ratioP1;P1;durP2;ratioP2;P2;SDS_P1;SDS_P2;PMS_P1;PMS_P2;Temp;Humidity;BMP_temperature;BMP_pressure;BME280_temperature;BME280_humidity;BME280_pressure;Samples;Min_cycle;Max_cycle;Signal;HPM_P1;HPM_P2
2022/09/06 00:00:09;;;;;;;5.13;3.43;;;18.50;97.30;;;;;;5018017;28;20412;-89
2022/09/06 00:02:36;;;;;;;4.33;4.07;;;18.50;97.30;;;;;;5011129;28;20204;-88
2022/09/06 00:05:02;;;;;;;3.53;2.97;;;18.40;97.30;;;;;;5008574;28;20431;-89
2022/09/06 00:07:28;;;;;;;4.43;3.20;;;18.40;97.30;;;;;;4999971;28;20428;-89
2022/09/06 00:09:55;;;;;;;3.37;2.47;;;18.40;97.30;;;;;;5009999;28;20579;-88
2022/09/06 00:12:21;;;;;;;4.73;4.43;;;18.40;97.30;;;;;;5013585;28;20210;-89
2022/09/06 00:14:50;;;;;;;7.03;2.87;;;18.30;97.30;;;;;;5011735;28;20827;-88
2022/09/06 00:17:18;;;;;;;4.00;3.17;;;18.30;97.30;;;;;;5011854;28;20290;-89
2022/09/06 00:19:48;;;;;;;3.60;2.87;;;18.30;97.30;;;;;;5014349;28;20427;-89
2022/09/06 00:22:14;;;;;;;4.83;2.50;;;18.20;97.30;;;;;;5012688;28;20439;-89
2022/09/06 00:24:39;;;;;;;3.43;2.40;;;18.10;97.30;;;;;;5021169;28;20412;-88
2022/09/06 00:27:09;;;;;;;5.50;2.80;;;18.10;97.30;;;;;;5015474;28;20188;-89
2022/09/06 00:29:37;;;;;;;3.93;3.23;;;18.10;97.30;;;;;;5014385;28;20239;-89
2022/09/06 00:32:08;;;;;;;3.90;3.30;;;18.00;97.30;;;;;;5002058;28;20763;-88
2022/09/06 00:34:41;;;;;;;10.53;3.30;;;18.00;97.30;;;;;;5028488;28;20492;-89
2022/09/06 00:37:09;;;;;;;6.30;3.40;;;18.00;97.30;;;;;;5016730;28;20414;-88
2022/09/06 00:39:41;;;;;;;4.07;2.73;;;18.00;97.30;;;;;;5004349;28;20796;-88
2022/09/06 00:42:12;;;;;;;2.90;2.70;;;17.90;97.30;;;;;;5031334;28;20420;-88
2022/09/06 00:44:38;;;;;;;3.80;2.27;;;17.90;97.30;;;;;;5016487;28;20463;-89
2022/09/06 00:47:06;;;;;;;4.43;2.80;;;17.90;97.30;;;;;;5016813;28;20462;-88
2022/09/06 00:49:36;;;;;;;3.70;2.73;;;17.90;97.30;;;;;;5017358;28;20434;-89
2022/09/06 00:52:09;;;;;;;2.90;2.70;;;17.90;97.30;;;;;;5017535;28;20463;-89
2022/09/06 00:54:35;;;;;;;2.87;2.67;;;17.90;97.30;;;;;;5033580;28;20427;-89
2022/09/06 00:57:01;;;;;;;4.30;3.43;;;17.80;97.30;;;;;;5030572;28;20850;-89
2022/09/06 00:59:30;;;;;;;3.97;3.13;;;17.80;97.30;;;;;;5033396;28;20202;-89
2022/09/06 01:01:55;;;;;;;5.20;3.23;;;17.80;97.30;;;;;;5017448;28;20316;-88
2022/09/06 01:04:22;;;;;;;4.80;3.13;;;17.80;97.30;;;;;;5031888;28;20453;-89
2022/09/06 01:07:05;;;;;;;4.00;3.83;;;17.80;97.30;;;;;;5017203;28;20438;-88
2022/09/06 01:09:49;;;;;;;4.17;3.23;;;17.80;97.30;;;;;;5023749;28;20428;-89
2022/09/06 01:12:48;;;;;;;3.03;2.90;;;17.70;97.30;;;;;;5028576;28;20456;-89
2022/09/06 01:15:36;;;;;;;6.20;3.50;;;17.70;97.30;;;;;;5017104;28;20867;-89
2022/09/06 01:18:22;;;;;;;2.90;2.33;;;17.70;97.30;;;;;;5016631;28;20952;-88
2022/09/06 01:21:08;;;;;;;4.60;3.73;;;17.60;97.30;;;;;;5009109;28;20426;-88
2022/09/06 01:23:50;;;;;;;2.60;2.10;;;17.60;97.30;;;;;;5024845;28;20434;-89
2022/09/06 01:26:28;;;;;;;4.23;2.77;;;17.50;97.30;;;;;;5032667;28;20448;-89
2022/09/06 01:28:55;;;;;;;7.07;4.00;;;17.40;97.30;;;;;;5033573;28;20514;-89
2022/09/06 01:31:34;;;;;;;3.90;2.20;;;17.40;97.30;;;;;;5032672;28;20505;-89
2022/09/06 01:34:02;;;;;;;4.53;2.90;;;17.30;97.30;;;;;;5032697;28;20801;-88
2022/09/06 01:36:41;;;;;;;6.40;3.93;;;17.30;97.30;;;;;;5029511;28;20432;-88
2022/09/06 01:39:23;;;;;;;2.80;2.13;;;17.30;97.30;;;;;;5033327;28;20435;-89
2022/09/06 01:41:50;;;;;;;2.80;2.60;;;17.20;97.30;;;;;;5021343;28;20438;-89
2022/09/06 01:44:16;;;;;;;3.90;2.23;;;17.20;97.30;;;;;;5019652;28;20479;-89
2022/09/06 01:47:00;;;;;;;3.43;2.57;;;17.20;97.30;;;;;;5008182;28;20807;-88
2022/09/06 01:49:50;;;;;;;6.27;3.73;;;17.20;97.30;;;;;;5025941;28;20192;-89
2022/09/06 01:52:25;;;;;;;6.43;3.57;;;17.20;97.30;;;;;;5027697;28;21006;-89
2022/09/06 01:55:22;;;;;;;4.67;3.10;;;17.20;97.30;;;;;;5015835;28;20426;-89
2022/09/06 01:58:33;;;;;;;5.50;2.93;;;17.10;97.30;;;;;;5016634;28;21041;-89
2022/09/06 02:01:05;;;;;;;3.03;2.60;;;17.10;97.30;;;;;;4990540;28;20420;-89
2022/09/06 02:04:04;;;;;;;3.23;2.50;;;17.10;97.30;;;;;;5026302;28;20431;-89
2022/09/06 02:06:33;;;;;;;4.33;2.93;;;17.10;97.30;;;;;;4954921;28;20452;-89
2022/09/06 02:09:22;;;;;;;6.60;1.70;;;17.10;97.30;;;;;;5011640;28;20420;-88
2022/09/06 02:11:56;;;;;;;4.97;3.80;;;17.10;97.30;;;;;;5015417;28;20467;-88
2022/09/06 02:14:34;;;;;;;4.30;3.07;;;17.10;97.30;;;;;;5016186;28;20606;-88
2022/09/06 02:17:01;;;;;;;5.40;2.80;;;17.00;97.30;;;;;;5015165;28;20419;-89
2022/09/06 02:19:43;;;;;;;2.63;2.00;;;17.00;97.30;;;;;;5016209;28;21032;-88
2022/09/06 02:22:13;;;;;;;7.20;3.50;;;17.00;97.30;;;;;;5016363;28;20506;-88
2022/09/06 02:24:41;;;;;;;5.73;2.30;;;17.00;97.30;;;;;;5007986;28;20447;-89
2022/09/06 02:27:07;;;;;;;2.50;2.30;;;17.00;97.30;;;;;;5025198;28;20459;-89
2022/09/06 02:29:34;;;;;;;2.40;2.20;;;17.00;97.30;;;;;;5009505;28;20455;-89
2022/09/06 02:32:11;;;;;;;3.20;2.00;;;17.00;97.30;;;;;;5016527;28;20601;-89
2022/09/06 02:34:38;;;;;;;5.27;3.77;;;16.90;97.30;;;;;;5031482;28;20416;-89
2022/09/06 02:37:05;;;;;;;3.17;2.30;;;16.90;97.30;;;;;;5031817;28;20439;-88
2022/09/06 02:39:30;;;;;;;3.53;2.70;;;16.90;97.30;;;;;;5014345;28;20443;-89
2022/09/06 02:41:57;;;;;;;4.60;3.00;;;16.90;97.30;;;;;;5032615;28;20430;-88
2022/09/06 02:44:23;;;;;;;6.93;3.47;;;16.90;97.30;;;;;;5002107;28;20260;-89
2022/09/06 02:46:48;;;;;;;4.30;2.90;;;16.90;97.30;;;;;;5011818;28;20436;-88
2022/09/06 02:49:14;;;;;;;3.67;2.80;;;16.90;97.30;;;;;;4995428;28;20185;-89
2022/09/06 02:51:40;;;;;;;4.17;2.80;;;16.90;97.30;;;;;;4995667;28;20219;-89
2022/09/06 02:54:06;;;;;;;5.30;4.10;;;16.90;97.30;;;;;;4993669;28;20377;-89
2022/09/06 02:56:32;;;;;;;5.80;3.77;;;16.90;97.30;;;;;;5002936;28;20436;-88
2022/09/06 02:59:04;;;;;;;3.70;3.50;;;16.90;97.30;;;;;;4997026;28;20937;-89
2022/09/06 03:01:30;;;;;;;4.50;3.00;;;16.90;97.30;;;;;;5009042;28;20525;-89
2022/09/06 03:03:56;;;;;;;6.67;2.73;;;16.90;97.30;;;;;;4995123;28;20451;-89
2022/09/06 03:06:22;;;;;;;6.83;3.60;;;16.90;97.30;;;;;;5002584;28;20197;-89
2022/09/06 03:08:47;;;;;;;2.20;2.03;;;16.90;97.30;;;;;;5008344;28;20420;-88
2022/09/06 03:11:13;;;;;;;2.97;2.47;;;16.90;97.30;;;;;;4995426;28;20207;-88
2022/09/06 03:13:38;;;;;;;5.43;3.30;;;16.90;97.30;;;;;;4997810;28;20287;-88
2022/09/06 03:16:04;;;;;;;4.00;3.50;;;16.90;97.30;;;;;;4994540;28;20185;-89
2022/09/06 03:18:30;;;;;;;4.67;2.53;;;16.90;97.30;;;;;;4995098;28;20185;-89
2022/09/06 03:20:56;;;;;;;3.07;2.40;;;16.90;97.30;;;;;;4995298;28;20181;-89
2022/09/06 03:23:24;;;;;;;3.53;2.97;;;16.90;97.30;;;;;;4994694;28;20444;-89
2022/09/06 03:25:50;;;;;;;4.00;2.60;;;16.90;97.30;;;;;;5010772;28;20486;-87
2022/09/06 03:28:17;;;;;;;6.13;3.53;;;16.80;97.30;;;;;;4994989;28;20421;-89
2022/09/06 03:30:47;;;;;;;3.30;3.00;;;16.80;97.30;;;;;;4985301;28;20452;-89
2022/09/06 03:33:13;;;;;;;5.30;4.13;;;16.80;97.30;;;;;;5005310;28;21112;-88
2022/09/06 03:35:40;;;;;;;5.33;2.50;;;16.70;97.30;;;;;;5001648;28;20460;-89
2022/09/06 03:38:06;;;;;;;5.37;3.40;;;16.70;97.30;;;;;;4998466;28;20256;-89
2022/09/06 03:40:31;;;;;;;4.23;3.33;;;16.60;97.30;;;;;;5010797;28;20452;-89
2022/09/06 03:42:57;;;;;;;5.20;2.80;;;16.60;97.30;;;;;;4999396;28;20341;-89
2022/09/06 03:45:22;;;;;;;3.97;2.70;;;16.60;97.30;;;;;;5014043;28;20662;-89
2022/09/06 03:47:48;;;;;;;2.63;2.47;;;16.60;97.30;;;;;;5030888;28;20271;-89
2022/09/06 03:50:13;;;;;;;6.90;3.60;;;16.60;97.30;;;;;;5030733;28;20646;-89
2022/09/06 03:52:39;;;;;;;6.20;4.43;;;16.60;97.30;;;;;;5014321;28;20302;-89
2022/09/06 03:55:06;;;;;;;3.00;2.83;;;16.50;97.30;;;;;;5013854;28;20632;-88
2022/09/06 03:57:31;;;;;;;5.67;4.20;;;16.50;97.30;;;;;;5014575;28;20416;-89
2022/09/06 03:59:57;;;;;;;6.30;3.77;;;16.50;97.30;;;;;;5027592;28;20427;-89
2022/09/06 04:02:24;;;;;;;2.70;2.10;;;16.50;97.30;;;;;;5026925;28;20222;-88
2022/09/06 04:04:54;;;;;;;4.20;2.30;;;16.50;97.30;;;;;;5014040;28;20192;-89
2022/09/06 04:07:20;;;;;;;4.43;3.23;;;16.50;97.30;;;;;;5015072;28;20419;-88
2022/09/06 04:09:46;;;;;;;3.30;2.37;;;16.50;97.30;;;;;;5022085;28;20419;-89
2022/09/06 04:12:11;;;;;;;3.23;2.50;;;16.40;97.30;;;;;;5014031;28;20501;-89
2022/09/06 04:14:37;;;;;;;3.17;2.93;;;16.40;97.30;;;;;;5028617;28;20714;-89
2022/09/06 04:17:02;;;;;;;3.03;2.83;;;16.40;97.30;;;;;;5029211;28;20176;-89
2022/09/06 04:19:27;;;;;;;3.80;2.57;;;16.30;97.30;;;;;;5012284;28;20183;-88
2022/09/06 04:21:53;;;;;;;4.80;3.57;;;16.30;97.30;;;;;;5027928;28;20196;-89
2022/09/06 04:24:18;;;;;;;4.57;4.30;;;16.30;97.30;;;;;;5030459;28;20208;-89
2022/09/06 04:26:50;;;;;;;2.60;2.40;;;16.30;97.30;;;;;;5045065;28;20192;-90
2022/09/06 04:29:18;;;;;;;3.43;3.27;;;16.20;97.30;;;;;;5032971;28;20191;-89
2022/09/06 04:31:51;;;;;;;5.37;2.93;;;16.10;97.30;;;;;;5034466;28;20482;-89
2022/09/06 04:34:18;;;;;;;1.67;1.60;;;16.10;97.30;;;;;;5023898;28;20432;-88
2022/09/06 04:36:52;;;;;;;4.13;3.23;;;16.10;97.30;;;;;;5012672;28;20869;-88
2022/09/06 04:39:19;;;;;;;4.00;2.60;;;16.00;97.30;;;;;;5027281;28;20427;-87
2022/09/06 04:41:47;;;;;;;3.60;3.07;;;16.00;97.30;;;;;;5014543;28;21880;-88
2022/09/06 04:44:15;;;;;;;5.77;3.30;;;16.00;97.30;;;;;;5023059;28;20490;-88
2022/09/06 04:46:41;;;;;;;7.90;4.87;;;16.00;97.30;;;;;;5035349;28;20410;-89
2022/09/06 04:49:09;;;;;;;3.67;3.23;;;16.00;97.30;;;;;;5031062;28;20411;-88
2022/09/06 04:51:38;;;;;;;5.00;2.83;;;16.00;97.30;;;;;;5017015;28;20550;-89
2022/09/06 04:54:08;;;;;;;5.60;4.23;;;16.00;97.30;;;;;;5016216;28;20913;-89
2022/09/06 04:59:20;;;;;;;3.70;3.43;;;15.90;97.30;;;;;;5022163;28;20497;-88
2022/09/06 05:01:49;;;;;;;2.90;2.00;;;15.90;97.30;;;;;;5034701;28;20423;-89
2022/09/06 05:04:20;;;;;;;4.47;2.87;;;15.90;97.30;;;;;;5036686;28;20577;-89
2022/09/06 05:06:48;;;;;;;5.37;4.53;;;15.90;97.30;;;;;;5019084;28;20439;-89
2022/09/06 05:09:15;;;;;;;3.03;2.83;;;15.90;97.30;;;;;;5023056;28;20425;-90
2022/09/06 05:11:41;;;;;;;3.60;2.50;;;15.90;97.30;;;;;;5031432;28;20455;-91
2022/09/06 05:14:09;;;;;;;2.97;2.77;;;15.90;97.30;;;;;;5036686;28;20431;-89
2022/09/06 05:16:39;;;;;;;2.70;2.50;;;16.00;97.30;;;;;;5044681;28;20223;-90
2022/09/06 05:19:08;;;;;;;4.13;3.60;;;16.00;97.30;;;;;;5021040;28;20502;-90
2022/09/06 05:21:33;;;;;;;6.63;2.50;;;16.00;97.30;;;;;;5034455;28;20431;-89
2022/09/06 05:23:58;;;;;;;2.93;2.50;;;16.00;97.30;;;;;;5018803;28;20529;-88
2022/09/06 05:26:29;;;;;;;3.20;2.50;;;16.10;97.30;;;;;;5023001;28;20207;-89
2022/09/06 05:28:55;;;;;;;3.60;2.77;;;16.10;97.30;;;;;;5042571;28;20188;-90
2022/09/06 05:31:29;;;;;;;2.70;2.60;;;16.10;97.30;;;;;;5016194;28;20471;-90
2022/09/06 05:33:56;;;;;;;6.27;3.53;;;16.20;97.30;;;;;;5017127;28;20534;-89
2022/09/06 05:36:23;;;;;;;4.23;2.70;;;16.20;97.30;;;;;;5033716;28;20940;-89
2022/09/06 05:38:53;;;;;;;2.47;2.03;;;16.20;97.30;;;;;;5017571;28;20839;-89
2022/09/06 05:41:19;;;;;;;3.27;1.80;;;16.20;97.30;;;;;;5024143;28;20517;-89
2022/09/06 05:43:44;;;;;;;3.47;2.80;;;16.30;97.30;;;;;;5043060;23;20543;-89
2022/09/06 05:46:10;;;;;;;3.27;3.07;;;16.30;97.30;;;;;;5009092;28;20957;-89
2022/09/06 05:48:36;;;;;;;2.67;2.47;;;16.30;97.30;;;;;;5008599;28;20664;-89
2022/09/06 05:51:07;;;;;;;5.10;2.83;;;16.30;97.30;;;;;;5028113;28;20443;-89
2022/09/06 05:53:41;;;;;;;4.73;3.47;;;16.30;97.30;;;;;;5028242;28;20667;-89
2022/09/06 05:56:08;;;;;;;4.00;2.60;;;16.30;97.30;;;;;;5014907;28;20703;-89
2022/09/06 05:58:33;;;;;;;6.80;3.67;;;16.30;97.30;;;;;;5011754;28;20487;-89
2022/09/06 06:01:07;;;;;;;3.80;3.23;;;16.40;97.30;;;;;;5011523;28;20499;-89
2022/09/06 06:03:33;;;;;;;4.80;2.63;;;16.40;97.30;;;;;;5011666;28;20197;-88
2022/09/06 06:05:58;;;;;;;3.80;2.70;;;16.40;97.30;;;;;;5011306;28;20974;-90
2022/09/06 06:08:24;;;;;;;3.03;2.43;;;16.40;97.30;;;;;;5011534;28;20236;-89
2022/09/06 06:10:49;;;;;;;5.03;3.07;;;16.40;97.30;;;;;;5011441;28;20259;-88
2022/09/06 06:13:15;;;;;;;2.83;2.63;;;16.40;97.30;;;;;;5027085;28;20581;-89
2022/09/06 06:15:40;;;;;;;3.10;2.47;;;16.40;97.30;;;;;;5010894;28;20177;-89
2022/09/06 06:18:08;;;;;;;4.97;3.10;;;16.40;97.30;;;;;;5011586;28;20447;-88
2022/09/06 06:20:34;;;;;;;4.10;2.90;;;16.40;97.30;;;;;;5012341;28;20181;-89
2022/09/06 06:22:59;;;;;;;4.20;3.13;;;16.50;97.30;;;;;;5010911;28;20420;-89
2022/09/06 06:25:25;;;;;;;8.70;3.10;;;16.50;97.30;;;;;;5011253;28;20195;-89
2022/09/06 06:27:51;;;;;;;4.47;2.70;;;16.50;97.30;;;;;;5010974;28;20181;-89
2022/09/06 06:30:17;;;;;;;2.87;2.67;;;16.50;97.30;;;;;;5010981;28;20540;-89
2022/09/06 06:32:43;;;;;;;3.17;2.97;;;16.50;97.30;;;;;;5010964;28;20462;-89
2022/09/06 06:35:09;;;;;;;5.60;2.67;;;16.50;97.30;;;;;;5027534;28;20205;-88
2022/09/06 06:37:34;;;;;;;3.70;3.20;;;16.50;97.30;;;;;;5010941;28;20201;-88
2022/09/06 06:40:00;;;;;;;6.67;2.73;;;16.50;97.30;;;;;;5011430;28;20495;-88
2022/09/06 06:42:26;;;;;;;2.50;2.00;;;16.50;97.30;;;;;;5007209;28;20182;-88
2022/09/06 06:44:52;;;;;;;2.40;1.63;;;16.50;97.30;;;;;;4993185;28;20232;-89
2022/09/06 06:47:18;;;;;;;1.80;1.70;;;16.50;97.30;;;;;;5024674;28;20422;-89
2022/09/06 06:49:44;;;;;;;9.03;3.80;;;16.50;97.30;;;;;;5010560;28;20637;-89
2022/09/06 06:52:09;;;;;;;4.80;2.97;;;16.50;97.30;;;;;;5007218;28;20457;-89
2022/09/06 06:54:36;;;;;;;7.53;3.50;;;16.50;97.30;;;;;;5007078;28;20291;-89
2022/09/06 06:57:03;;;;;;;4.70;2.90;;;16.50;97.30;;;;;;5010619;28;20227;-89
2022/09/06 06:59:29;;;;;;;3.77;2.77;;;16.50;97.30;;;;;;5010321;28;20451;-88
2022/09/06 07:01:54;;;;;;;5.00;3.57;;;16.50;97.30;;;;;;5010368;28;20460;-89
2022/09/06 07:04:20;;;;;;;2.47;2.30;;;16.60;97.30;;;;;;5000879;28;20444;-88
2022/09/06 07:06:50;;;;;;;3.70;2.83;;;16.60;97.30;;;;;;5019984;28;20177;-89
2022/09/06 07:09:17;;;;;;;3.10;2.90;;;16.70;97.30;;;;;;5017576;28;20178;-89
2022/09/06 07:11:45;;;;;;;4.93;3.00;;;16.70;97.30;;;;;;5009624;28;20531;-88
2022/09/06 07:14:10;;;;;;;4.87;2.93;;;16.70;97.30;;;;;;5010583;28;20485;-89
2022/09/06 07:16:36;;;;;;;3.20;3.03;;;16.80;97.30;;;;;;5026187;28;20507;-89
2022/09/06 07:19:02;;;;;;;6.07;3.53;;;16.80;97.30;;;;;;5033161;28;20190;-89
2022/09/06 07:21:27;;;;;;;4.83;3.30;;;16.90;97.30;;;;;;5001162;28;20182;-89
2022/09/06 07:23:53;;;;;;;3.40;3.13;;;16.90;97.30;;;;;;4999887;28;20209;-89
2022/09/06 07:26:30;;;;;;;3.47;2.93;;;16.90;97.30;;;;;;5011153;28;20173;-89
2022/09/06 07:28:57;;;;;;;15.03;4.73;;;17.00;97.30;;;;;;5010733;28;20946;-88
2022/09/06 07:31:24;;;;;;;6.80;4.60;;;17.10;97.30;;;;;;5009971;28;20506;-88
2022/09/06 07:33:49;;;;;;;2.63;2.43;;;17.10;97.30;;;;;;5019257;28;20444;-88
2022/09/06 07:36:18;;;;;;;5.60;3.20;;;17.10;97.30;;;;;;5010159;28;20471;-88
2022/09/06 07:38:47;;;;;;;4.77;1.97;;;17.20;97.30;;;;;;5010156;28;20181;-89
2022/09/06 07:41:16;;;;;;;3.40;3.07;;;17.20;97.30;;;;;;5009858;28;20805;-89
2022/09/06 07:43:41;;;;;;;2.77;2.57;;;17.20;97.30;;;;;;5009232;28;20475;-89
2022/09/06 07:46:09;;;;;;;7.00;3.87;;;17.30;97.30;;;;;;5010017;28;20405;-89
2022/09/06 07:48:39;;;;;;;4.70;3.20;;;17.40;97.30;;;;;;5009736;28;20244;-88
2022/09/06 07:51:06;;;;;;;4.13;3.60;;;17.40;97.30;;;;;;5014245;28;20423;-88
2022/09/06 07:53:32;;;;;;;7.77;3.97;;;17.40;97.30;;;;;;5010389;28;20468;-89
2022/09/06 07:55:59;;;;;;;4.80;3.50;;;17.40;97.30;;;;;;5013851;28;20452;-89
2022/09/06 07:58:24;;;;;;;2.90;2.73;;;17.40;97.30;;;;;;5009501;28;20192;-89
2022/09/06 08:00:50;;;;;;;4.27;3.53;;;17.40;97.30;;;;;;5010804;28;20424;-89
2022/09/06 08:03:16;;;;;;;7.67;5.60;;;17.50;97.30;;;;;;5009546;28;20215;-89
2022/09/06 08:05:41;;;;;;;4.03;3.27;;;17.50;97.30;;;;;;5019151;28;20182;-88
2022/09/06 08:08:07;;;;;;;4.40;3.70;;;17.60;97.30;;;;;;4997822;28;20427;-88
2022/09/06 08:10:32;;;;;;;2.30;2.13;;;17.70;97.30;;;;;;4985258;28;20173;-89
2022/09/06 08:12:58;;;;;;;4.00;2.83;;;17.70;97.30;;;;;;5008788;28;20738;-89
2022/09/06 08:15:23;;;;;;;5.57;3.20;;;17.80;97.30;;;;;;4981229;28;20182;-88
2022/09/06 08:17:50;;;;;;;3.40;3.13;;;17.90;97.30;;;;;;5003629;28;20215;-88
2022/09/06 08:20:16;;;;;;;3.97;2.27;;;17.90;97.30;;;;;;5001355;28;20166;-90
2022/09/06 08:22:42;;;;;;;3.60;2.80;;;17.90;97.30;;;;;;5010495;28;20580;-88
2022/09/06 08:25:08;;;;;;;4.17;3.03;;;18.00;97.30;;;;;;5009277;28;20534;-88
2022/09/06 08:27:33;;;;;;;3.93;2.50;;;18.00;97.30;;;;;;5025445;28;20185;-88
2022/09/06 08:29:59;;;;;;;3.27;2.70;;;18.10;97.30;;;;;;5025816;28;20177;-88
2022/09/06 08:32:25;;;;;;;7.03;4.50;;;18.10;97.30;;;;;;5025375;28;20205;-89
2022/09/06 08:34:51;;;;;;;8.33;3.53;;;18.20;97.30;;;;;;4998331;28;20188;-88
2022/09/06 08:37:16;;;;;;;4.80;3.00;;;18.30;97.30;;;;;;5002756;28;20417;-88
2022/09/06 08:39:41;;;;;;;5.80;4.53;;;18.30;97.30;;;;;;5018592;28;20188;-89
2022/09/06 08:42:07;;;;;;;3.30;2.77;;;18.50;97.30;;;;;;5012887;28;20559;-88
2022/09/06 08:44:35;;;;;;;2.27;2.00;;;18.60;97.30;;;;;;5010597;28;20527;-88
2022/09/06 08:47:06;;;;;;;3.80;3.17;;;18.70;97.30;;;;;;5012896;28;20503;-88
2022/09/06 08:49:36;;;;;;;6.43;2.93;;;18.70;97.30;;;;;;5002927;28;20579;-88
2022/09/06 08:52:38;;;;;;;5.47;2.63;;;18.80;97.30;;;;;;5015840;28;20460;-88
2022/09/06 08:55:32;;;;;;;3.77;2.57;;;18.90;97.30;;;;;;5022557;28;20436;-88
2022/09/06 08:58:16;;;;;;;4.47;3.87;;;19.00;97.30;;;;;;5012295;28;20824;-88
2022/09/06 09:00:49;;;;;;;8.53;3.70;;;19.10;97.30;;;;;;5016093;28;20427;-89
2022/09/06 09:03:21;;;;;;;3.73;3.50;;;19.10;97.30;;;;;;5012205;28;20443;-88
2022/09/06 09:05:51;;;;;;;4.43;2.37;;;19.10;97.30;;;;;;5012968;28;20423;-89
2022/09/06 09:08:31;;;;;;;4.97;3.87;;;19.20;97.30;;;;;;5012441;28;20455;-88
2022/09/06 09:11:00;;;;;;;21.23;4.20;;;19.20;97.30;;;;;;5012962;28;20930;-88
2022/09/06 09:13:54;;;;;;;4.97;2.80;;;19.30;97.30;;;;;;5012023;28;20506;-88
2022/09/06 09:16:20;;;;;;;5.90;3.50;;;19.40;97.30;;;;;;5016216;28;20436;-88
2022/09/06 09:18:50;;;;;;;3.33;3.00;;;19.40;97.30;;;;;;5028956;28;20598;-87
2022/09/06 09:21:20;;;;;;;5.07;3.27;;;19.50;97.30;;;;;;5009557;28;20862;-88
2022/09/06 09:23:52;;;;;;;5.00;2.93;;;19.60;97.30;;;;;;4993193;28;20436;-88
2022/09/06 09:26:20;;;;;;;5.30;3.30;;;19.80;97.30;;;;;;5007698;28;20417;-88
2022/09/06 09:29:11;;;;;;;5.80;2.87;;;20.00;97.30;;;;;;5012061;28;20958;-88
2022/09/06 09:31:46;;;;;;;2.63;2.17;;;20.20;97.30;;;;;;5032592;28;20559;-87
2022/09/06 09:34:25;;;;;;;8.93;3.70;;;20.40;97.30;;;;;;5011533;28;20559;-87
2022/09/06 09:37:11;;;;;;;9.63;3.37;;;20.50;97.30;;;;;;5019351;28;20431;-87
2022/09/06 09:39:38;;;;;;;5.37;3.67;;;20.70;97.30;;;;;;4998949;28;20416;-88
2022/09/06 09:42:06;;;;;;;5.77;4.30;;;20.80;97.30;;;;;;5011490;28;20450;-88
2022/09/06 09:44:32;;;;;;;3.60;2.57;;;20.90;97.30;;;;;;5004541;28;20475;-88
2022/09/06 09:46:57;;;;;;;3.20;3.03;;;21.00;97.30;;;;;;5010767;28;20416;-87
2022/09/06 09:49:23;;;;;;;5.00;4.13;;;21.10;97.30;;;;;;5020840;28;20429;-88
2022/09/06 09:52:11;;;;;;;8.23;3.83;;;21.20;97.30;;;;;;5013031;28;20201;-86
2022/09/06 09:54:40;;;;;;;5.10;3.77;;;21.30;97.00;;;;;;5011594;28;20428;-88
2022/09/06 09:57:13;;;;;;;10.77;5.13;;;21.40;96.40;;;;;;5011577;28;20420;-87
2022/09/06 09:59:53;;;;;;;3.93;2.90;;;21.50;96.00;;;;;;5011880;28;20486;-87
2022/09/06 10:02:54;;;;;;;3.53;3.33;;;21.60;96.00;;;;;;5000537;28;20408;-88
2022/09/06 10:05:20;;;;;;;7.60;4.80;;;21.70;95.90;;;;;;4990423;28;20479;-88
2022/09/06 10:07:48;;;;;;;4.27;3.50;;;21.80;95.90;;;;;;5011388;28;20440;-88
2022/09/06 10:10:19;;;;;;;4.00;3.60;;;22.00;96.10;;;;;;5012592;28;20416;-87
2022/09/06 10:12:44;;;;;;;9.43;5.67;;;22.10;95.50;;;;;;5020417;28;20521;-87
2022/09/06 10:15:30;;;;;;;8.03;5.47;;;22.20;94.80;;;;;;5010054;28;20472;-87
2022/09/06 10:17:55;;;;;;;4.10;3.43;;;22.20;94.20;;;;;;4991956;28;20189;-86
2022/09/06 10:20:28;;;;;;;4.33;3.63;;;22.30;94.50;;;;;;5010813;28;20486;-88
2022/09/06 10:23:03;;;;;;;6.80;4.70;;;22.40;95.30;;;;;;5008036;28;20208;-87
2022/09/06 10:25:39;;;;;;;5.90;4.40;;;22.50;94.50;;;;;;4993685;28;20432;-88
2022/09/06 10:28:32;;;;;;;6.60;4.20;;;22.60;94.20;;;;;;5012193;28;20499;-88
2022/09/06 10:31:08;;;;;;;5.43;3.90;;;22.70;94.40;;;;;;5010918;28;20603;-87
2022/09/06 10:34:06;;;;;;;4.10;3.57;;;22.80;94.30;;;;;;5011704;28;21045;-88
2022/09/06 10:36:35;;;;;;;4.63;3.10;;;23.00;94.30;;;;;;5015506;28;20532;-86
2022/09/06 10:39:42;;;;;;;3.93;3.10;;;23.20;93.40;;;;;;5011547;28;20443;-87
2022/09/06 10:42:29;;;;;;;3.53;3.33;;;23.20;92.50;;;;;;5011377;28;20412;-88
2022/09/06 10:45:24;;;;;;;8.40;3.60;;;23.30;92.80;;;;;;5002709;28;20475;-87
2022/09/06 10:48:15;;;;;;;7.60;4.13;;;23.40;92.10;;;;;;5015669;28;20691;-87
2022/09/06 10:50:52;;;;;;;5.03;3.67;;;23.40;92.10;;;;;;5024269;28;20416;-87
2022/09/06 10:53:20;;;;;;;7.87;4.60;;;23.50;91.90;;;;;;5030911;28;20577;-88
2022/09/06 10:55:51;;;;;;;4.83;3.13;;;23.50;92.00;;;;;;5025918;28;21017;-87
2022/09/06 10:58:30;;;;;;;3.60;3.40;;;23.40;91.80;;;;;;4996554;28;20505;-87
2022/09/06 11:00:55;;;;;;;5.10;3.77;;;23.40;91.90;;;;;;5001962;28;20423;-88
2022/09/06 11:03:39;;;;;;;7.30;4.33;;;23.20;91.80;;;;;;5004874;28;20444;-87
2022/09/06 11:06:07;;;;;;;7.27;4.03;;;23.20;91.80;;;;;;4992654;28;20193;-87
2022/09/06 11:08:47;;;;;;;4.27;2.93;;;23.10;92.20;;;;;;4997807;28;20443;-87
2022/09/06 11:11:27;;;;;;;6.70;3.80;;;23.10;92.50;;;;;;5009798;28;20506;-88
2022/09/06 11:13:52;;;;;;;6.13;3.70;;;23.00;92.40;;;;;;5009306;28;20447;-88
2022/09/06 11:16:28;;;;;;;3.37;3.07;;;23.00;92.70;;;;;;4999504;28;20420;-87
2022/09/06 11:19:28;;;;;;;4.67;4.17;;;22.90;93.00;;;;;;5010020;28;20258;-87
2022/09/06 11:22:26;;;;;;;5.87;3.93;;;22.90;93.30;;;;;;4999177;28;20448;-88
2022/09/06 11:25:21;;;;;;;3.93;3.27;;;22.80;93.60;;;;;;5010637;28;20820;-87
2022/09/06 11:27:52;;;;;;;5.83;4.37;;;22.80;93.90;;;;;;5009898;28;20420;-87
2022/09/06 11:30:18;;;;;;;7.20;3.90;;;22.70;93.90;;;;;;5015464;28;20735;-87
2022/09/06 11:32:50;;;;;;;8.33;3.73;;;22.70;94.00;;;;;;5009155;28;20454;-88
2022/09/06 11:35:32;;;;;;;6.00;3.03;;;22.70;94.10;;;;;;5009619;28;20197;-88
2022/09/06 11:38:21;;;;;;;4.33;3.30;;;22.60;94.30;;;;;;5003186;28;20412;-87
2022/09/06 11:40:53;;;;;;;4.10;3.50;;;22.60;94.40;;;;;;5006893;28;21113;-87
2022/09/06 11:43:43;;;;;;;4.80;2.97;;;22.60;94.40;;;;;;5016542;28;20436;-87
2022/09/06 11:46:09;;;;;;;6.03;3.73;;;22.60;94.70;;;;;;5048150;23;20534;-87
2022/09/06 11:49:00;;;;;;;4.00;3.63;;;22.60;94.70;;;;;;5003876;28;20423;-87
2022/09/06 11:51:41;;;;;;;14.43;4.40;;;22.50;94.80;;;;;;5015697;28;20244;-86
2022/09/06 11:54:09;;;;;;;9.07;3.90;;;22.50;95.20;;;;;;5032615;28;20427;-87
2022/09/06 11:56:58;;;;;;;8.20;4.40;;;22.50;95.50;;;;;;5045123;28;20474;-86
2022/09/06 11:59:42;;;;;;;2.77;2.50;;;22.50;95.60;;;;;;5016874;28;20424;-87
2022/09/06 12:02:35;;;;;;;4.30;3.13;;;22.50;95.80;;;;;;5008635;28;20929;-87
2022/09/06 12:05:02;;;;;;;4.40;3.30;;;22.60;96.00;;;;;;5030331;28;21064;-88
2022/09/06 12:07:30;;;;;;;8.07;4.23;;;22.60;96.20;;;;;;5031143;28;20414;-88
2022/09/06 12:09:55;;;;;;;4.33;2.87;;;22.60;96.10;;;;;;5014611;28;20796;-87
2022/09/06 12:12:44;;;;;;;5.17;3.80;;;22.60;96.10;;;;;;5015092;28;20454;-87
2022/09/06 12:15:31;;;;;;;3.03;2.43;;;22.70;96.30;;;;;;5016705;28;20232;-87
2022/09/06 12:17:58;;;;;;;2.93;2.37;;;22.70;96.20;;;;;;5017108;28;20419;-87
2022/09/06 12:20:53;;;;;;;4.77;3.10;;;22.70;96.00;;;;;;5034599;28;20418;-88
2022/09/06 12:23:33;;;;;;;9.97;3.63;;;22.70;96.30;;;;;;5013363;28;20964;-90
2022/09/06 12:26:07;;;;;;;3.17;2.50;;;22.80;96.20;;;;;;5017130;28;20605;-90
2022/09/06 12:28:34;;;;;;;80.57;3.57;;;22.90;96.20;;;;;;5016924;28;20538;-90
2022/09/06 12:31:28;;;;;;;6.00;2.57;;;22.90;96.10;;;;;;5016971;28;20447;-90
2022/09/06 12:33:55;;;;;;;5.73;3.77;;;23.00;95.90;;;;;;5021605;28;20426;-89
2022/09/06 12:36:23;;;;;;;3.63;3.27;;;23.10;95.30;;;;;;5015889;28;20439;-90
2022/09/06 12:38:59;;;;;;;3.53;3.33;;;23.10;95.20;;;;;;5015282;28;20430;-90
2022/09/06 12:41:28;;;;;;;2.53;1.97;;;23.10;94.90;;;;;;5034456;28;20514;-89
2022/09/06 12:43:57;;;;;;;4.40;3.20;;;23.10;94.70;;;;;;5029716;28;20416;-90
2022/09/06 12:46:24;;;;;;;4.43;2.80;;;23.10;94.20;;;;;;5021587;28;20482;-90
2022/09/06 12:49:08;;;;;;;6.63;4.03;;;23.00;94.30;;;;;;5034472;28;20419;-90
2022/09/06 12:51:35;;;;;;;3.23;2.43;;;23.00;94.70;;;;;;5032652;28;20531;-90
2022/09/06 12:54:04;;;;;;;5.20;4.13;;;23.00;94.90;;;;;;5016427;28;20906;-90
2022/09/06 12:56:32;;;;;;;8.13;4.37;;;23.00;94.90;;;;;;5033943;28;20438;-89
2022/09/06 12:59:18;;;;;;;3.17;2.97;;;23.00;95.10;;;;;;5015888;28;20937;-90
2022/09/06 13:02:04;;;;;;;6.43;3.97;;;23.00;95.60;;;;;;5016340;28;20423;-90
2022/09/06 13:05:04;;;;;;;4.70;3.20;;;23.00;95.90;;;;;;5004332;28;20513;-89
2022/09/06 13:07:31;;;;;;;7.83;3.27;;;23.10;96.00;;;;;;4974296;28;20431;-90
2022/09/06 13:09:57;;;;;;;4.67;2.27;;;23.20;96.30;;;;;;5016152;28;20933;-90